createdAt,value
2022-10-12T00:01:47.052Z,1.92
2022-10-12T00:04:14.794Z,2.17
2022-10-12T00:06:42.501Z,1.63
2022-10-12T00:09:10.161Z,1.50
2022-10-12T00:11:37.951Z,1.77
2022-10-12T00:14:05.682Z,1.60
2022-10-12T00:16:34.879Z,1.88
2022-10-12T00:19:02.671Z,1.40
2022-10-12T00:21:31.701Z,1.80
2022-10-12T00:23:59.765Z,1.52
2022-10-12T00:26:28.137Z,1.98
2022-10-12T00:28:57.991Z,2.20
2022-10-12T00:31:26.049Z,2.53
2022-10-12T00:33:56.143Z,1.80
2022-10-12T00:36:26.273Z,1.70
2022-10-12T00:38:56.004Z,2.38
2022-10-12T00:41:26.751Z,1.90
2022-10-12T00:43:58.247Z,1.80
2022-10-12T00:46:31.346Z,1.70
2022-10-12T00:49:07.789Z,1.65
2022-10-12T00:51:35.713Z,1.90
2022-10-12T00:54:07.021Z,1.65
2022-10-12T00:56:39.461Z,2.50
2022-10-12T00:59:12.053Z,2.33
2022-10-12T01:01:40.578Z,2.10
2022-10-12T01:04:10.010Z,1.90
2022-10-12T01:06:37.785Z,1.60
2022-10-12T01:09:05.989Z,1.90
2022-10-12T01:11:33.652Z,1.77
2022-10-12T01:14:01.476Z,1.77
2022-10-12T01:16:39.436Z,1.65
2022-10-12T01:19:26.651Z,1.95
2022-10-12T01:22:01.755Z,1.63
2022-10-12T01:24:52.623Z,1.70
2022-10-12T01:27:41.006Z,1.50
2022-10-12T01:30:19.879Z,1.48
2022-10-12T01:33:01.423Z,1.55
2022-10-12T01:35:35.463Z,1.40
2022-10-12T01:38:13.069Z,1.80
2022-10-12T01:40:45.773Z,2.45
2022-10-12T01:43:13.459Z,1.92
2022-10-12T01:45:42.542Z,1.88
2022-10-12T01:48:10.882Z,2.55
2022-10-12T01:50:49.110Z,1.45
2022-10-12T01:53:26.725Z,1.70
2022-10-12T01:55:59.132Z,1.88
2022-10-12T01:58:53.121Z,1.85
2022-10-12T02:04:03.614Z,1.20
2022-10-12T02:06:37.586Z,1.92
2022-10-12T02:09:10.759Z,1.63
2022-10-12T02:11:42.579Z,1.55
2022-10-12T02:14:16.111Z,2.08
2022-10-12T02:16:48.967Z,2.33
2022-10-12T02:19:21.945Z,2.35
2022-10-12T02:21:50.885Z,2.22
2022-10-12T02:24:21.307Z,1.80
2022-10-12T02:26:53.870Z,2.00
2022-10-12T02:29:24.285Z,2.10
2022-10-12T02:31:57.865Z,2.10
2022-10-12T02:34:32.127Z,2.28
2022-10-12T02:37:08.012Z,2.38
2022-10-12T02:39:41.218Z,2.05
2022-10-12T02:42:13.428Z,1.52
2022-10-12T02:44:44.641Z,1.60
2022-10-12T02:47:16.424Z,1.40
2022-10-12T02:49:46.427Z,1.38
2022-10-12T02:52:14.133Z,2.28
2022-10-12T02:54:41.824Z,1.73
2022-10-12T02:57:09.699Z,1.60
2022-10-12T02:59:37.546Z,1.60
2022-10-12T03:02:05.320Z,1.45
2022-10-12T03:04:35.842Z,1.63
2022-10-12T03:07:03.754Z,1.70
2022-10-12T03:09:31.586Z,1.48
2022-10-12T03:11:59.296Z,1.60
2022-10-12T03:14:27.782Z,1.80
2022-10-12T03:16:55.707Z,1.70
2022-10-12T03:19:23.400Z,1.80
2022-10-12T03:21:52.460Z,1.88
2022-10-12T03:24:20.116Z,1.80
2022-10-12T03:26:47.887Z,2.20
2022-10-12T03:29:15.646Z,2.38
2022-10-12T03:31:43.390Z,1.40
2022-10-12T03:34:11.103Z,2.40
2022-10-12T03:36:38.807Z,2.22
2022-10-12T03:39:07.977Z,2.00
2022-10-12T03:41:35.988Z,1.95
2022-10-12T03:44:03.721Z,2.33
2022-10-12T03:46:31.451Z,2.28
2022-10-12T03:48:59.218Z,2.55
2022-10-12T03:51:27.461Z,2.30
2022-10-12T03:53:55.207Z,2.88
2022-10-12T03:56:24.250Z,2.55
2022-10-12T03:58:51.926Z,2.25
2022-10-12T04:01:19.623Z,2.35
2022-10-12T04:03:47.418Z,2.53
2022-10-12T04:06:15.177Z,3.10
2022-10-12T04:08:46.010Z,2.20
2022-10-12T04:11:17.597Z,3.60
2022-10-12T04:13:46.657Z,3.28
2022-10-12T04:16:14.337Z,2.95
2022-10-12T04:18:42.097Z,2.95
2022-10-12T04:21:13.527Z,2.65
2022-10-12T04:23:41.769Z,2.83
2022-10-12T04:26:10.208Z,3.05
2022-10-12T04:28:37.995Z,4.05
2022-10-12T04:31:07.122Z,3.47
2022-10-12T04:33:34.867Z,3.20
2022-10-12T04:36:02.517Z,2.95
2022-10-12T04:38:30.210Z,3.05
2022-10-12T04:40:58.086Z,3.60
2022-10-12T04:43:25.793Z,2.80
2022-10-12T04:45:57.177Z,2.83
2022-10-12T04:48:27.031Z,2.83
2022-10-12T04:50:54.752Z,3.03
2022-10-12T04:53:22.469Z,2.95
2022-10-12T04:55:50.310Z,2.53
2022-10-12T04:58:18.017Z,2.28
2022-10-12T05:00:45.709Z,2.63
2022-10-12T05:03:13.409Z,2.03
2022-10-12T05:05:42.508Z,1.98
2022-10-12T05:08:10.183Z,2.42
2022-10-12T05:10:37.886Z,3.55
2022-10-12T05:13:05.562Z,3.15
2022-10-12T05:15:33.296Z,1.95
2022-10-12T05:18:00.966Z,2.83
2022-10-12T05:20:28.722Z,2.25
2022-10-12T05:22:59.449Z,3.80
2022-10-12T05:25:29.225Z,2.95
2022-10-12T05:27:57.230Z,2.50
2022-10-12T05:30:25.592Z,2.42
2022-10-12T05:32:53.301Z,2.60
2022-10-12T05:35:21.079Z,2.70
2022-10-12T05:37:48.721Z,2.03
2022-10-12T05:40:18.001Z,2.67
2022-10-12T05:42:46.522Z,2.15
2022-10-12T05:45:14.357Z,2.38
2022-10-12T05:47:42.212Z,2.38
2022-10-12T05:50:10.464Z,2.55
2022-10-12T05:52:38.477Z,1.85
2022-10-12T05:55:07.318Z,2.35
2022-10-12T05:57:36.593Z,2.75
2022-10-12T06:00:06.073Z,2.05
2022-10-12T06:02:33.738Z,2.20
2022-10-12T06:05:01.481Z,2.20
2022-10-12T06:07:29.401Z,2.58
2022-10-12T06:09:57.168Z,1.95
2022-10-12T06:12:25.149Z,2.67
2022-10-12T06:14:54.242Z,2.30
2022-10-12T06:17:21.972Z,2.53
2022-10-12T06:19:49.853Z,2.75
2022-10-12T06:22:17.573Z,3.40
2022-10-12T06:24:45.341Z,1.98
2022-10-12T06:27:13.898Z,2.05
2022-10-12T06:29:41.563Z,2.15
2022-10-12T06:32:10.769Z,3.35
2022-10-12T06:34:38.509Z,2.85
2022-10-12T06:37:06.143Z,1.92
2022-10-12T06:39:33.875Z,1.70
2022-10-12T06:42:01.656Z,2.08
2022-10-12T06:44:29.377Z,1.85
2022-10-12T06:46:57.076Z,2.97
2022-10-12T06:49:26.255Z,2.13
2022-10-12T06:51:53.970Z,2.08
2022-10-12T06:54:21.677Z,3.15
2022-10-12T06:56:49.424Z,3.08
2022-10-12T06:59:19.019Z,2.05
2022-10-12T07:01:46.739Z,1.95
2022-10-12T07:04:14.445Z,2.63
2022-10-12T07:06:43.537Z,1.60
2022-10-12T07:09:11.850Z,3.80
2022-10-12T07:11:39.615Z,2.10
2022-10-12T07:14:07.386Z,1.85
2022-10-12T07:16:35.076Z,2.22
2022-10-12T07:19:03.306Z,1.88
2022-10-12T07:21:31.041Z,1.98
2022-10-12T07:24:00.206Z,2.50
2022-10-12T07:26:27.929Z,2.45
2022-10-12T07:28:55.853Z,2.20
2022-10-12T07:31:23.583Z,2.85
2022-10-12T07:33:51.316Z,2.83
2022-10-12T07:36:21.742Z,2.45
2022-10-12T07:38:50.126Z,2.22
2022-10-12T07:41:19.746Z,1.73
2022-10-12T07:43:47.853Z,2.42
2022-10-12T07:46:15.714Z,2.22
2022-10-12T07:48:47.499Z,2.45
2022-10-12T07:51:17.593Z,2.55
2022-10-12T07:53:45.371Z,2.78
2022-10-12T07:56:15.863Z,2.15
2022-10-12T07:58:49.895Z,1.98
2022-10-12T08:01:18.678Z,1.85
2022-10-12T08:03:46.450Z,2.53
2022-10-12T08:06:16.109Z,2.72
2022-10-12T08:08:44.742Z,2.05
2022-10-12T08:11:13.475Z,1.90
2022-10-12T08:13:42.251Z,1.85
2022-10-12T08:16:14.013Z,2.38
2022-10-12T08:18:42.295Z,1.75
2022-10-12T08:21:11.905Z,2.92
2022-10-12T08:23:39.973Z,2.42
2022-10-12T08:26:08.412Z,2.55
2022-10-12T08:28:37.033Z,3.15
2022-10-12T08:31:08.169Z,2.70
2022-10-12T08:33:37.359Z,2.63
2022-10-12T08:36:06.542Z,2.65
2022-10-12T08:38:34.517Z,3.30
2022-10-12T08:41:08.170Z,2.13
2022-10-12T08:43:47.237Z,2.22
2022-10-12T08:46:15.449Z,2.28
2022-10-12T08:48:49.973Z,2.03
2022-10-12T08:51:22.063Z,2.20
2022-10-12T08:53:58.346Z,2.97
2022-10-12T08:56:26.300Z,3.50
2022-10-12T08:58:55.469Z,3.35
2022-10-12T09:01:30.468Z,2.95
2022-10-12T09:04:12.048Z,3.10
2022-10-12T09:06:45.952Z,3.53
2022-10-12T09:09:44.095Z,2.88
2022-10-12T09:12:26.836Z,3.80
2022-10-12T09:15:00.412Z,3.33
2022-10-12T09:17:32.199Z,2.80
2022-10-12T09:20:05.437Z,2.45
2022-10-12T09:22:35.542Z,4.90
2022-10-12T09:25:04.133Z,3.42
2022-10-12T09:27:32.778Z,3.33
2022-10-12T09:30:04.188Z,3.00
2022-10-12T09:32:43.467Z,4.40
2022-10-12T09:35:15.013Z,3.80
2022-10-12T09:37:42.890Z,4.32
2022-10-12T09:40:27.126Z,3.28
2022-10-12T09:42:57.225Z,3.70
2022-10-12T09:45:25.069Z,3.70
2022-10-12T09:48:16.389Z,3.63
2022-10-12T09:50:49.051Z,4.10
2022-10-12T09:53:25.111Z,3.50
2022-10-12T09:55:55.277Z,3.83
2022-10-12T09:58:23.425Z,3.25
2022-10-12T10:01:16.332Z,2.95
2022-10-12T10:03:44.074Z,3.55
2022-10-12T10:06:15.223Z,4.13
2022-10-12T10:08:45.089Z,3.72
2022-10-12T10:11:17.539Z,5.03
2022-10-12T10:13:50.094Z,4.43
2022-10-12T10:16:18.274Z,4.50
2022-10-12T10:18:49.219Z,3.90
2022-10-12T10:21:28.021Z,3.47
2022-10-12T10:23:57.949Z,4.38
2022-10-12T10:26:27.503Z,4.80
2022-10-12T10:28:59.662Z,3.58
2022-10-12T10:31:29.565Z,3.23
2022-10-12T10:34:11.591Z,3.58
2022-10-12T10:36:45.411Z,4.45
2022-10-12T10:39:20.655Z,3.08
2022-10-12T10:41:49.257Z,3.10
2022-10-12T10:44:27.435Z,3.85
2022-10-12T10:46:56.380Z,4.35
2022-10-12T10:49:30.059Z,3.08
2022-10-12T10:52:00.941Z,2.92
2022-10-12T10:54:30.902Z,2.95
2022-10-12T10:57:03.022Z,3.65
2022-10-12T10:59:40.403Z,3.75
2022-10-12T11:02:24.627Z,3.90
2022-10-12T11:04:59.186Z,3.28
2022-10-12T11:07:34.510Z,2.30
2022-10-12T11:10:05.431Z,2.88
2022-10-12T11:12:36.998Z,2.38
2022-10-12T11:15:13.570Z,3.20
2022-10-12T11:17:47.166Z,3.35
2022-10-12T11:20:30.489Z,4.22
2022-10-12T11:25:34.509Z,3.25
2022-10-12T11:28:02.363Z,3.35
2022-10-12T11:30:39.641Z,2.92
2022-10-12T11:33:12.637Z,2.10
2022-10-12T11:35:43.842Z,2.33
2022-10-12T11:38:19.790Z,2.20
2022-10-12T11:41:31.201Z,2.60
2022-10-12T11:43:45.602Z,3.92
2022-10-12T11:46:17.389Z,2.40
2022-10-12T11:48:51.523Z,2.53
2022-10-12T11:51:19.376Z,2.50
2022-10-12T11:53:57.725Z,2.53
2022-10-12T11:56:30.423Z,2.13
2022-10-12T11:59:02.518Z,2.05
2022-10-12T12:01:44.350Z,2.10
2022-10-12T12:07:42.285Z,1.77
2022-10-12T12:10:47.274Z,2.22
2022-10-12T12:13:23.671Z,2.10
2022-10-12T12:16:32.413Z,1.95
2022-10-12T12:19:35.963Z,1.98
2022-10-12T12:22:19.501Z,1.30
2022-10-12T12:25:00.203Z,1.92
2022-10-12T12:27:38.296Z,1.45
2022-10-12T12:30:33.201Z,1.73
2022-10-12T12:33:02.928Z,2.10
2022-10-12T12:35:36.897Z,1.27
2022-10-12T12:38:18.411Z,2.13
2022-10-12T12:40:57.843Z,1.75
2022-10-12T12:44:02.433Z,1.60
2022-10-12T12:47:43.967Z,2.03
2022-10-12T12:50:35.372Z,1.27
2022-10-12T12:53:07.236Z,1.83
2022-10-12T12:55:49.926Z,1.70
2022-10-12T12:58:32.316Z,2.20
2022-10-12T13:01:22.666Z,2.07
2022-10-12T13:04:04.616Z,2.17
2022-10-12T13:07:08.633Z,2.40
2022-10-12T13:09:59.558Z,1.80
2022-10-12T13:12:41.378Z,2.33
2022-10-12T13:15:28.695Z,2.10
2022-10-12T13:18:46.420Z,2.58
2022-10-12T13:21:19.294Z,1.98
2022-10-12T13:23:51.415Z,2.00
2022-10-12T13:26:25.501Z,2.13
2022-10-12T13:28:55.093Z,1.88
2022-10-12T13:31:27.555Z,2.10
2022-10-12T13:34:04.639Z,2.38
2022-10-12T13:36:35.019Z,1.58
2022-10-12T13:39:16.714Z,1.77
2022-10-12T13:41:46.062Z,1.52
2022-10-12T13:44:22.093Z,1.30
2022-10-12T13:46:51.984Z,1.55
2022-10-12T13:49:21.587Z,1.83
2022-10-12T13:51:52.014Z,1.98
2022-10-12T13:54:23.811Z,1.95
2022-10-12T13:56:56.426Z,2.13
2022-10-12T13:59:26.036Z,1.75
2022-10-12T14:01:57.265Z,1.60
2022-10-12T14:04:29.963Z,1.77
2022-10-12T14:07:01.453Z,2.30
2022-10-12T14:09:42.269Z,1.75
2022-10-12T14:12:10.654Z,1.10
2022-10-12T14:14:40.701Z,1.80
2022-10-12T14:17:08.746Z,1.90
2022-10-12T14:19:45.094Z,1.48
2022-10-12T14:22:14.763Z,2.15
2022-10-12T14:24:43.812Z,2.15
2022-10-12T14:27:23.902Z,2.85
2022-10-12T14:29:55.334Z,1.88
2022-10-12T14:32:42.171Z,1.63
2022-10-12T14:35:31.349Z,1.48
2022-10-12T14:37:59.271Z,2.55
2022-10-12T14:40:35.353Z,1.48
2022-10-12T14:43:07.894Z,1.65
2022-10-12T14:45:36.487Z,1.85
2022-10-12T14:48:07.059Z,1.38
2022-10-12T14:50:34.874Z,1.23
2022-10-12T14:53:06.564Z,1.90
2022-10-12T14:55:35.894Z,1.60
2022-10-12T14:58:07.991Z,1.73
2022-10-12T15:00:37.198Z,1.87
2022-10-12T15:03:05.635Z,1.67
2022-10-12T15:05:34.138Z,1.85
2022-10-12T15:08:07.236Z,1.85
2022-10-12T15:10:37.238Z,1.55
2022-10-12T15:13:05.038Z,1.70
2022-10-12T15:15:37.235Z,1.95
2022-10-12T15:18:05.208Z,1.80
2022-10-12T15:20:33.896Z,1.67
2022-10-12T15:23:02.811Z,1.70
2022-10-12T15:25:43.430Z,1.90
2022-10-12T15:28:11.421Z,1.98
2022-10-12T15:30:47.436Z,1.58
2022-10-12T15:33:26.061Z,1.83
2022-10-12T15:35:53.712Z,2.92
2022-10-12T15:38:22.373Z,2.97
2022-10-12T15:40:52.833Z,2.65
2022-10-12T15:43:20.826Z,2.47
2022-10-12T15:45:48.534Z,2.40
2022-10-12T15:48:16.358Z,2.42
2022-10-12T15:50:45.545Z,1.95
2022-10-12T15:53:16.450Z,1.85
2022-10-12T15:55:44.171Z,1.70
2022-10-12T15:58:13.189Z,1.55
2022-10-12T16:00:41.051Z,2.15
2022-10-12T16:03:08.826Z,1.90
2022-10-12T16:05:38.319Z,1.60
2022-10-12T16:08:06.955Z,1.55
2022-10-12T16:10:37.326Z,1.80
2022-10-12T16:13:06.186Z,1.40
2022-10-12T16:15:36.886Z,2.28
2022-10-12T16:18:06.337Z,2.25
2022-10-12T16:20:37.475Z,1.85
2022-10-12T16:23:07.419Z,2.95
2022-10-12T16:25:35.974Z,2.58
2022-10-12T16:28:03.682Z,2.53
2022-10-12T16:30:31.598Z,2.15
2022-10-12T16:33:00.676Z,2.47
2022-10-12T16:35:28.502Z,2.42
2022-10-12T16:37:56.186Z,1.83
2022-10-12T16:40:23.906Z,2.33
2022-10-12T16:42:53.518Z,1.70
2022-10-12T16:45:21.697Z,2.22
2022-10-12T16:47:50.401Z,1.95
2022-10-12T16:50:20.056Z,2.25
2022-10-12T16:52:48.523Z,2.65
2022-10-12T16:55:16.707Z,2.83
2022-10-12T16:57:44.531Z,2.72
2022-10-12T17:00:15.297Z,2.08
2022-10-12T17:02:44.126Z,3.92
2022-10-12T17:05:11.883Z,3.40
2022-10-12T17:07:40.969Z,2.10
2022-10-12T17:10:09.671Z,3.25
2022-10-12T17:12:37.383Z,2.08
2022-10-12T17:15:06.148Z,3.00
2022-10-12T17:17:33.862Z,1.77
2022-10-12T17:22:30.112Z,3.03
2022-10-12T17:24:59.227Z,2.17
2022-10-12T17:27:29.967Z,1.70
2022-10-12T17:30:00.409Z,2.25
2022-10-12T17:32:28.193Z,1.67
2022-10-12T17:34:55.862Z,1.98
2022-10-12T17:37:23.610Z,1.63
2022-10-12T17:39:51.369Z,1.10
2022-10-12T17:42:22.027Z,1.52
2022-10-12T17:44:50.064Z,1.20
2022-10-12T17:47:18.251Z,1.75
2022-10-12T17:49:46.371Z,1.58
2022-10-12T17:52:14.292Z,1.63
2022-10-12T17:54:42.145Z,1.55
2022-10-12T17:57:09.821Z,1.25
2022-10-12T17:59:39.399Z,1.20
2022-10-12T18:02:09.622Z,1.75
2022-10-12T18:04:37.717Z,1.58
2022-10-12T18:07:05.520Z,1.15
2022-10-12T18:09:33.179Z,1.23
2022-10-12T18:12:00.862Z,1.77
2022-10-12T18:14:28.674Z,1.67
2022-10-12T18:16:58.748Z,2.28
2022-10-12T18:19:26.529Z,3.63
2022-10-12T18:21:54.237Z,3.80
2022-10-12T18:24:23.200Z,3.97
2022-10-12T18:26:51.019Z,3.40
2022-10-12T18:29:18.785Z,2.33
2022-10-12T18:31:46.497Z,2.47
2022-10-12T18:34:15.588Z,2.40
2022-10-12T18:36:43.277Z,1.80
2022-10-12T18:39:11.165Z,1.75
2022-10-12T18:41:38.893Z,2.30
2022-10-12T18:44:06.609Z,1.67
2022-10-12T18:46:37.063Z,2.78
2022-10-12T18:49:07.846Z,2.15
2022-10-12T18:51:39.191Z,1.42
2022-10-12T18:54:07.882Z,2.55
2022-10-12T18:56:37.118Z,2.08
2022-10-12T18:59:05.601Z,2.10
2022-10-12T19:01:34.191Z,1.50
2022-10-12T19:04:03.276Z,1.73
2022-10-12T19:06:33.376Z,1.88
2022-10-12T19:09:02.639Z,1.58
2022-10-12T19:11:31.093Z,1.92
2022-10-12T19:14:02.061Z,1.33
2022-10-12T19:16:30.415Z,1.95
2022-10-12T19:18:59.388Z,2.40
2022-10-12T19:21:27.869Z,2.92
2022-10-12T19:23:55.782Z,2.90
2022-10-12T19:26:27.409Z,1.70
2022-10-12T19:28:56.958Z,2.00
2022-10-12T19:31:27.043Z,2.60
2022-10-12T19:33:57.784Z,2.53
2022-10-12T19:36:26.326Z,1.90
2022-10-12T19:38:56.253Z,1.85
2022-10-12T19:41:26.625Z,1.80
2022-10-12T19:43:54.993Z,1.63
2022-10-12T19:46:22.716Z,1.42
2022-10-12T19:48:54.157Z,1.65
2022-10-12T19:51:23.501Z,1.52
2022-10-12T19:53:54.046Z,1.50
2022-10-12T19:56:22.087Z,1.70
2022-10-12T19:58:52.989Z,2.22
2022-10-12T20:01:22.433Z,2.13
2022-10-12T20:03:50.975Z,1.95
2022-10-12T20:06:20.071Z,1.95
2022-10-12T20:08:48.628Z,2.50
2022-10-12T20:11:22.554Z,1.58
2022-10-12T20:13:53.753Z,1.20
2022-10-12T20:16:22.308Z,1.42
2022-10-12T20:18:50.646Z,1.60
2022-10-12T20:21:21.158Z,2.33
2022-10-12T20:23:49.745Z,1.88
2022-10-12T20:26:19.509Z,1.90
2022-10-12T20:28:47.704Z,2.03
2022-10-12T20:31:18.578Z,1.85
2022-10-12T20:33:46.481Z,1.27
2022-10-12T20:36:19.638Z,1.38
2022-10-12T20:38:47.314Z,1.27
2022-10-12T20:41:17.138Z,1.65
2022-10-12T20:43:45.309Z,1.10
2022-10-12T20:46:14.955Z,1.17
2022-10-12T20:48:44.959Z,1.05
2022-10-12T20:51:19.314Z,1.05
2022-10-12T20:53:47.344Z,1.33
2022-10-12T20:56:15.117Z,1.00
2022-10-12T20:58:42.794Z,1.25
2022-10-12T21:01:13.037Z,1.25
2022-10-12T21:03:42.135Z,1.35
2022-10-12T21:06:13.347Z,1.20
2022-10-12T21:08:41.302Z,1.02
2022-10-12T21:11:10.526Z,1.05
2022-10-12T21:13:41.164Z,0.82
2022-10-12T21:16:09.373Z,1.10
2022-10-12T21:18:38.354Z,2.03
2022-10-12T21:21:11.381Z,1.02
2022-10-12T21:23:41.257Z,0.80
2022-10-12T21:26:13.588Z,2.20
2022-10-12T21:28:41.606Z,1.20
2022-10-12T21:31:10.306Z,0.82
2022-10-12T21:33:38.816Z,1.10
2022-10-12T21:36:07.657Z,0.98
2022-10-12T21:38:35.522Z,0.90
2022-10-12T21:41:05.346Z,1.10
2022-10-12T21:43:33.610Z,0.80
2022-10-12T21:46:05.234Z,0.95
2022-10-12T21:48:33.984Z,0.93
2022-10-12T21:51:01.972Z,1.10
2022-10-12T21:53:30.264Z,1.17
2022-10-12T21:55:58.022Z,1.33
2022-10-12T21:58:27.119Z,1.17
2022-10-12T22:00:55.102Z,0.77
2022-10-12T22:03:23.636Z,1.48
2022-10-12T22:05:51.317Z,1.00
2022-10-12T22:08:19.066Z,0.98
2022-10-12T22:10:46.810Z,0.80
2022-10-12T22:13:14.473Z,0.70
2022-10-12T22:15:43.585Z,1.42
2022-10-12T22:18:11.350Z,0.70
2022-10-12T22:20:39.563Z,1.15
2022-10-12T22:23:07.313Z,0.93
2022-10-12T22:25:35.002Z,1.42
2022-10-12T22:28:02.710Z,1.13
2022-10-12T22:30:30.429Z,1.05
2022-10-12T22:32:59.465Z,1.55
2022-10-12T22:35:27.223Z,1.42
2022-10-12T22:37:54.881Z,1.02
2022-10-12T22:40:22.569Z,0.82
2022-10-12T22:42:50.437Z,1.17
2022-10-12T22:45:18.225Z,0.90
2022-10-12T22:47:45.925Z,0.90
2022-10-12T22:50:15.135Z,1.08
2022-10-12T22:52:42.803Z,0.98
2022-10-12T22:55:10.736Z,1.40
2022-10-12T22:57:38.494Z,0.95
2022-10-12T23:00:07.189Z,1.52
2022-10-12T23:02:34.862Z,1.15
2022-10-12T23:05:02.613Z,1.15
2022-10-12T23:07:31.641Z,0.90
2022-10-12T23:09:59.306Z,1.00
2022-10-12T23:12:27.129Z,1.25
2022-10-12T23:14:54.881Z,1.52
2022-10-12T23:17:22.537Z,1.63
2022-10-12T23:19:50.277Z,2.20
2022-10-12T23:22:18.596Z,1.10
2022-10-12T23:24:48.047Z,1.75
2022-10-12T23:27:16.249Z,1.92
2022-10-12T23:29:44.016Z,1.38
2022-10-12T23:32:11.671Z,1.20
2022-10-12T23:34:39.392Z,1.63
2022-10-12T23:37:07.173Z,1.80
2022-10-12T23:39:34.958Z,1.17
2022-10-12T23:42:04.020Z,0.98
2022-10-12T23:44:31.745Z,1.73
2022-10-12T23:46:59.624Z,1.30
2022-10-12T23:49:27.302Z,1.77
2022-10-12T23:51:55.055Z,1.48
2022-10-12T23:54:22.804Z,1.40
2022-10-12T23:56:50.457Z,1.23
2022-10-12T23:59:19.702Z,1.00
